sensor_id;sensor_type;location;lat;lon;timestamp;temperature;humidity
6375;DHT22;35400;45.472;-122.822;2023-02-26T00:00:59;6.10;96.50
6375;DHT22;35400;45.472;-122.822;2023-02-26T00:03:26;6.10;97.00
6375;DHT22;35400;45.472;-122.822;2023-02-26T00:05:57;6.10;96.20
6375;DHT22;35400;45.472;-122.822;2023-02-26T00:08:24;6.10;96.00
6375;DHT22;35400;45.472;-122.822;2023-02-26T00:10:51;6.10;96.10
6375;DHT22;35400;45.472;-122.822;2023-02-26T00:13:20;6.00;95.90
6375;DHT22;35400;45.472;-122.822;2023-02-26T00:15:49;6.00;96.00
6375;DHT22;35400;45.472;-122.822;2023-02-26T00:18:20;6.00;96.30
6375;DHT22;35400;45.472;-122.822;2023-02-26T00:20:47;6.00;97.10
6375;DHT22;35400;45.472;-122.822;2023-02-26T00:23:14;6.00;96.80
6375;DHT22;35400;45.472;-122.822;2023-02-26T00:25:41;6.00;97.10
6375;DHT22;35400;45.472;-122.822;2023-02-26T00:28:09;5.90;97.40
6375;DHT22;35400;45.472;-122.822;2023-02-26T00:30:36;5.90;97.90
6375;DHT22;35400;45.472;-122.822;2023-02-26T00:33:03;5.90;98.10
6375;DHT22;35400;45.472;-122.822;2023-02-26T00:35:31;5.80;98.30
6375;DHT22;35400;45.472;-122.822;2023-02-26T00:43:02;5.70;99.30
6375;DHT22;35400;45.472;-122.822;2023-02-26T00:45:29;5.70;99.60
6375;DHT22;35400;45.472;-122.822;2023-02-26T00:56:29;5.40;99.90
6375;DHT22;35400;45.472;-122.822;2023-02-26T00:58:55;5.40;99.90
6375;DHT22;35400;45.472;-122.822;2023-02-26T01:01:23;5.40;99.90
6375;DHT22;35400;45.472;-122.822;2023-02-26T01:03:50;5.40;99.90
6375;DHT22;35400;45.472;-122.822;2023-02-26T01:06:19;5.30;99.90
6375;DHT22;35400;45.472;-122.822;2023-02-26T01:11:26;5.30;99.90
6375;DHT22;35400;45.472;-122.822;2023-02-26T01:13:53;5.20;99.90
6375;DHT22;35400;45.472;-122.822;2023-02-26T01:16:23;5.20;99.90
6375;DHT22;35400;45.472;-122.822;2023-02-26T01:18:58;5.20;99.90
6375;DHT22;35400;45.472;-122.822;2023-02-26T01:21:33;5.10;99.90
6375;DHT22;35400;45.472;-122.822;2023-02-26T01:24:05;5.10;99.90
6375;DHT22;35400;45.472;-122.822;2023-02-26T01:26:34;5.00;99.90
6375;DHT22;35400;45.472;-122.822;2023-02-26T01:29:01;5.00;99.90
6375;DHT22;35400;45.472;-122.822;2023-02-26T01:31:58;4.90;99.90
6375;DHT22;35400;45.472;-122.822;2023-02-26T01:34:50;4.90;99.90
6375;DHT22;35400;45.472;-122.822;2023-02-26T01:37:35;4.80;99.90
6375;DHT22;35400;45.472;-122.822;2023-02-26T01:42:57;4.60;99.90
6375;DHT22;35400;45.472;-122.822;2023-02-26T01:45:33;4.50;99.90
6375;DHT22;35400;45.472;-122.822;2023-02-26T01:48:06;4.40;99.90
6375;DHT22;35400;45.472;-122.822;2023-02-26T01:50:38;4.30;99.90
6375;DHT22;35400;45.472;-122.822;2023-02-26T01:53:22;4.20;99.90
6375;DHT22;35400;45.472;-122.822;2023-02-26T01:56:03;4.10;99.90
6375;DHT22;35400;45.472;-122.822;2023-02-26T01:58:33;4.00;99.90
6375;DHT22;35400;45.472;-122.822;2023-02-26T02:01:03;3.90;99.90
6375;DHT22;35400;45.472;-122.822;2023-02-26T02:03:33;3.80;99.90
6375;DHT22;35400;45.472;-122.822;2023-02-26T02:06:10;3.70;99.90
6375;DHT22;35400;45.472;-122.822;2023-02-26T02:08:39;3.60;99.90
6375;DHT22;35400;45.472;-122.822;2023-02-26T02:11:08;3.50;99.90
6375;DHT22;35400;45.472;-122.822;2023-02-26T02:13:59;3.40;99.90
6375;DHT22;35400;45.472;-122.822;2023-02-26T02:16:57;3.30;99.90
6375;DHT22;35400;45.472;-122.822;2023-02-26T02:33:59;2.60;99.90
6375;DHT22;35400;45.472;-122.822;2023-02-26T02:42:04;2.40;99.90
6375;DHT22;35400;45.472;-122.822;2023-02-26T02:44:35;2.30;99.90
6375;DHT22;35400;45.472;-122.822;2023-02-26T02:47:05;2.20;99.90
6375;DHT22;35400;45.472;-122.822;2023-02-26T02:49:43;2.10;99.90
6375;DHT22;35400;45.472;-122.822;2023-02-26T02:52:29;2.00;99.90
6375;DHT22;35400;45.472;-122.822;2023-02-26T02:55:20;2.00;99.90
6375;DHT22;35400;45.472;-122.822;2023-02-26T02:58:00;1.90;99.90
6375;DHT22;35400;45.472;-122.822;2023-02-26T03:00:31;1.80;99.90
6375;DHT22;35400;45.472;-122.822;2023-02-26T03:05:26;1.70;99.90
6375;DHT22;35400;45.472;-122.822;2023-02-26T03:08:06;1.60;99.90
6375;DHT22;35400;45.472;-122.822;2023-02-26T03:10:34;1.60;99.90
6375;DHT22;35400;45.472;-122.822;2023-02-26T03:13:02;1.60;99.90
6375;DHT22;35400;45.472;-122.822;2023-02-26T03:15:37;1.50;99.90
6375;DHT22;35400;45.472;-122.822;2023-02-26T03:21:16;1.40;99.90
6375;DHT22;35400;45.472;-122.822;2023-02-26T03:27:30;1.20;99.90
6375;DHT22;35400;45.472;-122.822;2023-02-26T03:30:13;1.20;99.90
6375;DHT22;35400;45.472;-122.822;2023-02-26T03:32:57;1.10;99.90
6375;DHT22;35400;45.472;-122.822;2023-02-26T03:38:36;1.00;99.90
6375;DHT22;35400;45.472;-122.822;2023-02-26T03:41:24;1.00;99.90
6375;DHT22;35400;45.472;-122.822;2023-02-26T03:44:01;0.90;99.90
6375;DHT22;35400;45.472;-122.822;2023-02-26T03:46:34;0.90;99.90
6375;DHT22;35400;45.472;-122.822;2023-02-26T03:49:06;0.80;99.90
6375;DHT22;35400;45.472;-122.822;2023-02-26T03:51:36;0.80;99.90
6375;DHT22;35400;45.472;-122.822;2023-02-26T03:54:31;0.80;99.90
6375;DHT22;35400;45.472;-122.822;2023-02-26T03:57:22;0.70;99.90
6375;DHT22;35400;45.472;-122.822;2023-02-26T04:00:26;0.70;99.90
6375;DHT22;35400;45.472;-122.822;2023-02-26T04:02:59;0.60;99.90
6375;DHT22;35400;45.472;-122.822;2023-02-26T04:05:31;0.60;99.90
6375;DHT22;35400;45.472;-122.822;2023-02-26T04:08:02;0.60;99.90
6375;DHT22;35400;45.472;-122.822;2023-02-26T04:11:07;0.60;99.90
6375;DHT22;35400;45.472;-122.822;2023-02-26T04:13:28;0.50;99.90
6375;DHT22;35400;45.472;-122.822;2023-02-26T04:15:55;0.50;99.90
6375;DHT22;35400;45.472;-122.822;2023-02-26T04:18:22;0.40;99.90
6375;DHT22;35400;45.472;-122.822;2023-02-26T04:20:49;0.40;99.90
6375;DHT22;35400;45.472;-122.822;2023-02-26T04:23:16;0.40;99.90
6375;DHT22;35400;45.472;-122.822;2023-02-26T04:25:45;0.40;99.90
6375;DHT22;35400;45.472;-122.822;2023-02-26T04:28:13;0.40;99.90
6375;DHT22;35400;45.472;-122.822;2023-02-26T04:30:40;0.40;99.90
6375;DHT22;35400;45.472;-122.822;2023-02-26T04:33:09;0.40;99.90
6375;DHT22;35400;45.472;-122.822;2023-02-26T04:35:36;0.40;99.90
6375;DHT22;35400;45.472;-122.822;2023-02-26T04:38:04;0.40;99.90
6375;DHT22;35400;45.472;-122.822;2023-02-26T04:40:30;0.40;99.90
6375;DHT22;35400;45.472;-122.822;2023-02-26T04:42:57;0.40;99.90
6375;DHT22;35400;45.472;-122.822;2023-02-26T04:45:27;0.40;99.90
6375;DHT22;35400;45.472;-122.822;2023-02-26T04:47:53;0.40;99.90
6375;DHT22;35400;45.472;-122.822;2023-02-26T04:50:20;0.50;99.90
6375;DHT22;35400;45.472;-122.822;2023-02-26T04:52:50;0.50;99.90
6375;DHT22;35400;45.472;-122.822;2023-02-26T04:55:17;0.50;99.90
6375;DHT22;35400;45.472;-122.822;2023-02-26T04:57:44;0.60;99.90
6375;DHT22;35400;45.472;-122.822;2023-02-26T05:00:12;0.60;99.90
6375;DHT22;35400;45.472;-122.822;2023-02-26T05:02:40;0.70;99.90
6375;DHT22;35400;45.472;-122.822;2023-02-26T05:05:07;0.70;99.90
6375;DHT22;35400;45.472;-122.822;2023-02-26T05:07:34;0.80;99.90
6375;DHT22;35400;45.472;-122.822;2023-02-26T05:10:01;0.80;99.90
6375;DHT22;35400;45.472;-122.822;2023-02-26T05:12:27;0.90;99.90
6375;DHT22;35400;45.472;-122.822;2023-02-26T05:14:54;0.90;99.90
6375;DHT22;35400;45.472;-122.822;2023-02-26T05:17:22;0.90;99.90
6375;DHT22;35400;45.472;-122.822;2023-02-26T05:19:49;1.00;99.90
6375;DHT22;35400;45.472;-122.822;2023-02-26T05:22:16;1.00;99.90
6375;DHT22;35400;45.472;-122.822;2023-02-26T05:24:44;1.10;99.90
6375;DHT22;35400;45.472;-122.822;2023-02-26T05:27:11;1.10;99.90
6375;DHT22;35400;45.472;-122.822;2023-02-26T05:29:43;1.10;99.90
6375;DHT22;35400;45.472;-122.822;2023-02-26T05:32:13;1.20;99.90
6375;DHT22;35400;45.472;-122.822;2023-02-26T05:34:40;1.20;99.90
6375;DHT22;35400;45.472;-122.822;2023-02-26T05:37:07;1.20;99.90
6375;DHT22;35400;45.472;-122.822;2023-02-26T05:39:33;1.30;99.90
6375;DHT22;35400;45.472;-122.822;2023-02-26T05:42:00;1.30;99.90
6375;DHT22;35400;45.472;-122.822;2023-02-26T05:44:27;1.30;99.90
6375;DHT22;35400;45.472;-122.822;2023-02-26T05:46:54;1.30;99.90
6375;DHT22;35400;45.472;-122.822;2023-02-26T05:49:21;1.40;99.90
6375;DHT22;35400;45.472;-122.822;2023-02-26T05:51:48;1.40;99.90
6375;DHT22;35400;45.472;-122.822;2023-02-26T05:54:15;1.40;99.90
6375;DHT22;35400;45.472;-122.822;2023-02-26T05:56:41;1.50;99.90
6375;DHT22;35400;45.472;-122.822;2023-02-26T05:59:08;1.50;99.90
6375;DHT22;35400;45.472;-122.822;2023-02-26T06:01:36;1.50;99.90
6375;DHT22;35400;45.472;-122.822;2023-02-26T06:04:06;1.60;99.90
6375;DHT22;35400;45.472;-122.822;2023-02-26T06:06:33;1.60;99.90
6375;DHT22;35400;45.472;-122.822;2023-02-26T06:09:00;1.60;99.90
6375;DHT22;35400;45.472;-122.822;2023-02-26T06:11:28;1.60;99.90
6375;DHT22;35400;45.472;-122.822;2023-02-26T06:13:55;1.70;99.90
6375;DHT22;35400;45.472;-122.822;2023-02-26T06:16:22;1.70;99.90
6375;DHT22;35400;45.472;-122.822;2023-02-26T06:18:49;1.70;99.90
6375;DHT22;35400;45.472;-122.822;2023-02-26T06:21:17;1.70;99.90
6375;DHT22;35400;45.472;-122.822;2023-02-26T06:23:44;1.70;99.90
6375;DHT22;35400;45.472;-122.822;2023-02-26T06:26:11;1.80;99.90
6375;DHT22;35400;45.472;-122.822;2023-02-26T06:28:38;1.80;99.90
6375;DHT22;35400;45.472;-122.822;2023-02-26T06:31:05;1.80;99.90
6375;DHT22;35400;45.472;-122.822;2023-02-26T06:33:32;1.90;99.90
6375;DHT22;35400;45.472;-122.822;2023-02-26T06:35:59;1.90;99.90
6375;DHT22;35400;45.472;-122.822;2023-02-26T06:38:27;1.90;99.90
6375;DHT22;35400;45.472;-122.822;2023-02-26T06:40:54;2.00;99.90
6375;DHT22;35400;45.472;-122.822;2023-02-26T06:43:21;2.00;99.90
6375;DHT22;35400;45.472;-122.822;2023-02-26T06:45:48;2.00;99.90
6375;DHT22;35400;45.472;-122.822;2023-02-26T06:48:15;2.00;99.90
6375;DHT22;35400;45.472;-122.822;2023-02-26T06:50:42;2.10;99.90
6375;DHT22;35400;45.472;-122.822;2023-02-26T06:53:09;2.10;99.90
6375;DHT22;35400;45.472;-122.822;2023-02-26T06:55:35;2.10;99.90
6375;DHT22;35400;45.472;-122.822;2023-02-26T06:58:02;2.10;99.90
6375;DHT22;35400;45.472;-122.822;2023-02-26T07:00:29;2.10;99.90
6375;DHT22;35400;45.472;-122.822;2023-02-26T07:02:56;2.10;99.90
6375;DHT22;35400;45.472;-122.822;2023-02-26T07:05:23;2.10;99.90
6375;DHT22;35400;45.472;-122.822;2023-02-26T07:07:50;2.20;99.90
6375;DHT22;35400;45.472;-122.822;2023-02-26T07:10:17;2.20;99.90
6375;DHT22;35400;45.472;-122.822;2023-02-26T07:12:47;2.30;99.90
6375;DHT22;35400;45.472;-122.822;2023-02-26T07:15:14;2.30;99.90
6375;DHT22;35400;45.472;-122.822;2023-02-26T07:17:41;2.40;99.90
6375;DHT22;35400;45.472;-122.822;2023-02-26T07:20:09;2.40;99.90
6375;DHT22;35400;45.472;-122.822;2023-02-26T07:22:37;2.40;99.90
6375;DHT22;35400;45.472;-122.822;2023-02-26T07:25:05;2.50;99.90
6375;DHT22;35400;45.472;-122.822;2023-02-26T07:27:32;2.50;99.90
6375;DHT22;35400;45.472;-122.822;2023-02-26T07:30:00;2.50;99.90
6375;DHT22;35400;45.472;-122.822;2023-02-26T07:32:27;2.60;99.90
6375;DHT22;35400;45.472;-122.822;2023-02-26T07:34:54;2.60;99.90
6375;DHT22;35400;45.472;-122.822;2023-02-26T07:37:21;2.60;99.90
6375;DHT22;35400;45.472;-122.822;2023-02-26T07:39:48;2.60;99.90
6375;DHT22;35400;45.472;-122.822;2023-02-26T07:42:15;2.60;99.90
6375;DHT22;35400;45.472;-122.822;2023-02-26T07:44:42;2.70;99.90
6375;DHT22;35400;45.472;-122.822;2023-02-26T07:47:10;2.70;99.90
6375;DHT22;35400;45.472;-122.822;2023-02-26T07:49:37;2.70;99.90
6375;DHT22;35400;45.472;-122.822;2023-02-26T07:52:04;2.70;99.90
6375;DHT22;35400;45.472;-122.822;2023-02-26T07:54:34;2.70;99.90
6375;DHT22;35400;45.472;-122.822;2023-02-26T07:57:02;2.70;99.90
6375;DHT22;35400;45.472;-122.822;2023-02-26T07:59:29;2.70;99.90
6375;DHT22;35400;45.472;-122.822;2023-02-26T08:01:56;2.70;99.90
6375;DHT22;35400;45.472;-122.822;2023-02-26T08:04:23;2.70;99.90
6375;DHT22;35400;45.472;-122.822;2023-02-26T08:06:51;2.70;99.90
6375;DHT22;35400;45.472;-122.822;2023-02-26T08:09:20;2.70;99.90
6375;DHT22;35400;45.472;-122.822;2023-02-26T08:11:47;2.70;99.90
6375;DHT22;35400;45.472;-122.822;2023-02-26T08:14:14;2.70;99.90
6375;DHT22;35400;45.472;-122.822;2023-02-26T08:16:41;2.60;99.90
6375;DHT22;35400;45.472;-122.822;2023-02-26T08:19:08;2.60;99.90
6375;DHT22;35400;45.472;-122.822;2023-02-26T08:21:35;2.50;99.90
6375;DHT22;35400;45.472;-122.822;2023-02-26T08:24:02;2.50;99.90
6375;DHT22;35400;45.472;-122.822;2023-02-26T08:26:28;2.40;99.90
6375;DHT22;35400;45.472;-122.822;2023-02-26T08:28:55;2.40;99.90
6375;DHT22;35400;45.472;-122.822;2023-02-26T08:31:22;2.30;99.90
6375;DHT22;35400;45.472;-122.822;2023-02-26T08:33:49;2.30;99.90
6375;DHT22;35400;45.472;-122.822;2023-02-26T08:36:16;2.20;99.90
6375;DHT22;35400;45.472;-122.822;2023-02-26T08:38:43;2.10;99.90
6375;DHT22;35400;45.472;-122.822;2023-02-26T08:41:09;2.10;99.90
6375;DHT22;35400;45.472;-122.822;2023-02-26T08:43:36;2.00;99.90
6375;DHT22;35400;45.472;-122.822;2023-02-26T08:46:03;1.90;99.90
6375;DHT22;35400;45.472;-122.822;2023-02-26T08:48:30;1.90;99.90
6375;DHT22;35400;45.472;-122.822;2023-02-26T08:50:57;1.90;99.90
6375;DHT22;35400;45.472;-122.822;2023-02-26T08:53:24;1.80;99.90
6375;DHT22;35400;45.472;-122.822;2023-02-26T08:55:52;1.80;99.90
6375;DHT22;35400;45.472;-122.822;2023-02-26T08:58:19;1.70;99.90
6375;DHT22;35400;45.472;-122.822;2023-02-26T09:00:47;1.70;99.90
6375;DHT22;35400;45.472;-122.822;2023-02-26T09:03:14;1.70;99.90
6375;DHT22;35400;45.472;-122.822;2023-02-26T09:05:41;1.60;99.90
6375;DHT22;35400;45.472;-122.822;2023-02-26T09:08:08;1.60;99.90
6375;DHT22;35400;45.472;-122.822;2023-02-26T09:10:36;1.60;99.90
6375;DHT22;35400;45.472;-122.822;2023-02-26T09:13:03;1.50;99.90
6375;DHT22;35400;45.472;-122.822;2023-02-26T09:15:30;1.50;99.90
6375;DHT22;35400;45.472;-122.822;2023-02-26T09:17:58;1.50;99.90
6375;DHT22;35400;45.472;-122.822;2023-02-26T09:20:25;1.50;99.90
6375;DHT22;35400;45.472;-122.822;2023-02-26T09:22:52;1.50;99.90
6375;DHT22;35400;45.472;-122.822;2023-02-26T09:25:19;1.50;99.90
6375;DHT22;35400;45.472;-122.822;2023-02-26T09:27:46;1.40;99.90
6375;DHT22;35400;45.472;-122.822;2023-02-26T09:30:13;1.40;99.90
6375;DHT22;35400;45.472;-122.822;2023-02-26T09:32:40;1.40;99.90
6375;DHT22;35400;45.472;-122.822;2023-02-26T09:35:07;1.40;99.90
6375;DHT22;35400;45.472;-122.822;2023-02-26T09:37:35;1.40;99.90
6375;DHT22;35400;45.472;-122.822;2023-02-26T09:40:02;1.40;99.90
6375;DHT22;35400;45.472;-122.822;2023-02-26T09:45:43;1.40;99.90
6375;DHT22;35400;45.472;-122.822;2023-02-26T09:48:14;1.40;99.90
6375;DHT22;35400;45.472;-122.822;2023-02-26T09:50:45;1.40;99.90
6375;DHT22;35400;45.472;-122.822;2023-02-26T09:53:15;1.40;99.90
6375;DHT22;35400;45.472;-122.822;2023-02-26T09:55:46;1.40;99.90
6375;DHT22;35400;45.472;-122.822;2023-02-26T09:58:28;1.30;99.90
6375;DHT22;35400;45.472;-122.822;2023-02-26T10:06:34;1.30;99.90
6375;DHT22;35400;45.472;-122.822;2023-02-26T10:11:59;1.30;99.90
6375;DHT22;35400;45.472;-122.822;2023-02-26T10:14:45;1.30;99.90
6375;DHT22;35400;45.472;-122.822;2023-02-26T10:17:32;1.30;99.90
6375;DHT22;35400;45.472;-122.822;2023-02-26T10:20:04;1.30;99.90
6375;DHT22;35400;45.472;-122.822;2023-02-26T10:22:38;1.30;99.90
6375;DHT22;35400;45.472;-122.822;2023-02-26T10:25:16;1.20;99.90
6375;DHT22;35400;45.472;-122.822;2023-02-26T10:28:04;1.20;99.90
6375;DHT22;35400;45.472;-122.822;2023-02-26T10:38:48;1.20;99.90
6375;DHT22;35400;45.472;-122.822;2023-02-26T10:41:19;1.30;99.90
6375;DHT22;35400;45.472;-122.822;2023-02-26T10:47:45;1.30;99.90
6375;DHT22;35400;45.472;-122.822;2023-02-26T10:49:54;1.30;99.90
6375;DHT22;35400;45.472;-122.822;2023-02-26T10:52:26;1.30;99.90
6375;DHT22;35400;45.472;-122.822;2023-02-26T10:58:06;1.30;99.90
6375;DHT22;35400;45.472;-122.822;2023-02-26T11:00:35;1.30;99.90
6375;DHT22;35400;45.472;-122.822;2023-02-26T11:03:03;1.30;99.90
6375;DHT22;35400;45.472;-122.822;2023-02-26T11:05:32;1.30;99.90
6375;DHT22;35400;45.472;-122.822;2023-02-26T11:08:03;1.30;99.90
6375;DHT22;35400;45.472;-122.822;2023-02-26T11:10:58;1.30;99.90
6375;DHT22;35400;45.472;-122.822;2023-02-26T11:13:28;1.30;99.90
6375;DHT22;35400;45.472;-122.822;2023-02-26T11:15:57;1.30;99.90
6375;DHT22;35400;45.472;-122.822;2023-02-26T11:18:54;1.30;99.90
6375;DHT22;35400;45.472;-122.822;2023-02-26T11:21:27;1.30;99.90
6375;DHT22;35400;45.472;-122.822;2023-02-26T11:24:02;1.30;99.90
6375;DHT22;35400;45.472;-122.822;2023-02-26T11:26:33;1.30;99.90
6375;DHT22;35400;45.472;-122.822;2023-02-26T11:29:01;1.30;99.90
6375;DHT22;35400;45.472;-122.822;2023-02-26T11:31:28;1.30;99.90
6375;DHT22;35400;45.472;-122.822;2023-02-26T11:34:02;1.40;99.90
6375;DHT22;35400;45.472;-122.822;2023-02-26T11:36:32;1.40;99.90
6375;DHT22;35400;45.472;-122.822;2023-02-26T11:39:15;1.40;99.90
6375;DHT22;35400;45.472;-122.822;2023-02-26T11:41:45;1.40;99.90
6375;DHT22;35400;45.472;-122.822;2023-02-26T11:44:16;1.40;99.90
6375;DHT22;35400;45.472;-122.822;2023-02-26T11:46:49;1.40;99.90
6375;DHT22;35400;45.472;-122.822;2023-02-26T11:49:23;1.40;99.90
6375;DHT22;35400;45.472;-122.822;2023-02-26T11:54:38;1.40;99.90
6375;DHT22;35400;45.472;-122.822;2023-02-26T11:57:11;1.40;99.90
6375;DHT22;35400;45.472;-122.822;2023-02-26T11:59:40;1.50;99.90
6375;DHT22;35400;45.472;-122.822;2023-02-26T12:02:11;1.50;99.90
6375;DHT22;35400;45.472;-122.822;2023-02-26T12:04:42;1.50;99.90
6375;DHT22;35400;45.472;-122.822;2023-02-26T12:07:15;1.50;99.90
6375;DHT22;35400;45.472;-122.822;2023-02-26T12:09:42;1.50;99.90
6375;DHT22;35400;45.472;-122.822;2023-02-26T12:19:45;1.50;99.90
6375;DHT22;35400;45.472;-122.822;2023-02-26T12:38:45;1.60;99.90
6375;DHT22;35400;45.472;-122.822;2023-02-26T12:48:00;1.60;99.90
6375;DHT22;35400;45.472;-122.822;2023-02-26T12:50:37;1.60;99.90
6375;DHT22;35400;45.472;-122.822;2023-02-26T13:04:22;1.60;99.90
6375;DHT22;35400;45.472;-122.822;2023-02-26T13:09:57;1.60;99.90
6375;DHT22;35400;45.472;-122.822;2023-02-26T13:20:38;1.70;99.90
6375;DHT22;35400;45.472;-122.822;2023-02-26T13:23:15;1.70;99.90
6375;DHT22;35400;45.472;-122.822;2023-02-26T13:25:56;1.70;99.90
6375;DHT22;35400;45.472;-122.822;2023-02-26T13:30:56;1.70;99.90
6375;DHT22;35400;45.472;-122.822;2023-02-26T13:33:27;1.70;99.90
6375;DHT22;35400;45.472;-122.822;2023-02-26T13:35:56;1.70;99.90
6375;DHT22;35400;45.472;-122.822;2023-02-26T13:41:16;1.70;99.90
6375;DHT22;35400;45.472;-122.822;2023-02-26T13:53:04;1.70;99.90
6375;DHT22;35400;45.472;-122.822;2023-02-26T13:55:52;1.70;99.90
6375;DHT22;35400;45.472;-122.822;2023-02-26T14:06:55;1.70;99.90
6375;DHT22;35400;45.472;-122.822;2023-02-26T14:14:23;1.70;99.90
6375;DHT22;35400;45.472;-122.822;2023-02-26T14:19:32;1.70;99.90
6375;DHT22;35400;45.472;-122.822;2023-02-26T14:32:33;1.70;99.90
6375;DHT22;35400;45.472;-122.822;2023-02-26T14:35:11;1.70;99.90
6375;DHT22;35400;45.472;-122.822;2023-02-26T14:37:39;1.70;99.90
6375;DHT22;35400;45.472;-122.822;2023-02-26T14:40:19;1.70;99.90
6375;DHT22;35400;45.472;-122.822;2023-02-26T14:42:50;1.70;99.90
6375;DHT22;35400;45.472;-122.822;2023-02-26T14:45:29;1.70;99.90
6375;DHT22;35400;45.472;-122.822;2023-02-26T14:47:59;1.70;99.90
6375;DHT22;35400;45.472;-122.822;2023-02-26T15:02:29;1.80;99.90
6375;DHT22;35400;45.472;-122.822;2023-02-26T15:08:28;1.80;99.90
6375;DHT22;35400;45.472;-122.822;2023-02-26T15:13:53;1.80;99.90
6375;DHT22;35400;45.472;-122.822;2023-02-26T15:22:14;1.90;99.90
6375;DHT22;35400;45.472;-122.822;2023-02-26T15:24:45;1.90;99.90
6375;DHT22;35400;45.472;-122.822;2023-02-26T15:27:15;1.90;99.90
6375;DHT22;35400;45.472;-122.822;2023-02-26T15:29:43;1.90;99.90
6375;DHT22;35400;45.472;-122.822;2023-02-26T15:32:16;2.00;99.90
6375;DHT22;35400;45.472;-122.822;2023-02-26T15:34:53;2.00;99.90
6375;DHT22;35400;45.472;-122.822;2023-02-26T15:37:23;2.00;99.90
6375;DHT22;35400;45.472;-122.822;2023-02-26T15:39:52;2.00;99.90
6375;DHT22;35400;45.472;-122.822;2023-02-26T15:42:21;2.00;99.90
6375;DHT22;35400;45.472;-122.822;2023-02-26T15:44:53;2.10;99.90
6375;DHT22;35400;45.472;-122.822;2023-02-26T15:47:21;2.10;99.90
6375;DHT22;35400;45.472;-122.822;2023-02-26T15:49:48;2.10;99.90
6375;DHT22;35400;45.472;-122.822;2023-02-26T15:52:21;2.10;99.90
6375;DHT22;35400;45.472;-122.822;2023-02-26T15:54:55;2.10;99.90
6375;DHT22;35400;45.472;-122.822;2023-02-26T15:57:23;2.20;99.90
6375;DHT22;35400;45.472;-122.822;2023-02-26T15:59:53;2.20;99.90
6375;DHT22;35400;45.472;-122.822;2023-02-26T16:02:31;2.20;99.90
6375;DHT22;35400;45.472;-122.822;2023-02-26T16:04:58;2.20;99.90
6375;DHT22;35400;45.472;-122.822;2023-02-26T16:07:27;2.20;99.90
6375;DHT22;35400;45.472;-122.822;2023-02-26T16:09:55;2.30;99.90
6375;DHT22;35400;45.472;-122.822;2023-02-26T16:12:36;2.30;99.90
6375;DHT22;35400;45.472;-122.822;2023-02-26T16:15:10;2.30;99.90
6375;DHT22;35400;45.472;-122.822;2023-02-26T16:17:43;2.30;99.90
6375;DHT22;35400;45.472;-122.822;2023-02-26T16:20:17;2.40;99.90
6375;DHT22;35400;45.472;-122.822;2023-02-26T16:23:27;2.40;99.90
6375;DHT22;35400;45.472;-122.822;2023-02-26T16:26:01;2.40;99.90
6375;DHT22;35400;45.472;-122.822;2023-02-26T16:28:31;2.40;99.90
6375;DHT22;35400;45.472;-122.822;2023-02-26T16:31:00;2.40;99.90
6375;DHT22;35400;45.472;-122.822;2023-02-26T16:33:32;2.40;99.90
6375;DHT22;35400;45.472;-122.822;2023-02-26T16:36:10;2.40;99.90
6375;DHT22;35400;45.472;-122.822;2023-02-26T16:38:46;2.50;99.90
6375;DHT22;35400;45.472;-122.822;2023-02-26T16:41:15;2.50;99.90
6375;DHT22;35400;45.472;-122.822;2023-02-26T16:46:28;2.50;99.90
6375;DHT22;35400;45.472;-122.822;2023-02-26T16:49:06;2.50;99.90
6375;DHT22;35400;45.472;-122.822;2023-02-26T16:51:37;2.60;99.90
6375;DHT22;35400;45.472;-122.822;2023-02-26T16:54:31;2.60;99.90
6375;DHT22;35400;45.472;-122.822;2023-02-26T16:57:07;2.70;99.90
6375;DHT22;35400;45.472;-122.822;2023-02-26T16:59:38;2.70;99.90
6375;DHT22;35400;45.472;-122.822;2023-02-26T17:02:17;2.80;99.90
6375;DHT22;35400;45.472;-122.822;2023-02-26T17:04:49;2.80;99.90
6375;DHT22;35400;45.472;-122.822;2023-02-26T17:07:30;2.80;99.90
6375;DHT22;35400;45.472;-122.822;2023-02-26T17:10:05;2.90;99.90
6375;DHT22;35400;45.472;-122.822;2023-02-26T17:12:45;3.00;99.90
6375;DHT22;35400;45.472;-122.822;2023-02-26T17:15:27;3.10;99.90
6375;DHT22;35400;45.472;-122.822;2023-02-26T17:17:54;3.20;99.90
6375;DHT22;35400;45.472;-122.822;2023-02-26T17:20:26;3.30;99.90
6375;DHT22;35400;45.472;-122.822;2023-02-26T17:22:54;3.30;99.90
6375;DHT22;35400;45.472;-122.822;2023-02-26T17:25:22;3.40;99.90
6375;DHT22;35400;45.472;-122.822;2023-02-26T17:27:51;3.50;99.90
6375;DHT22;35400;45.472;-122.822;2023-02-26T17:30:20;3.60;99.90
6375;DHT22;35400;45.472;-122.822;2023-02-26T17:32:49;3.70;99.90
6375;DHT22;35400;45.472;-122.822;2023-02-26T17:35:18;3.80;99.90
6375;DHT22;35400;45.472;-122.822;2023-02-26T17:37:45;3.80;99.90
6375;DHT22;35400;45.472;-122.822;2023-02-26T17:40:28;3.90;99.90
6375;DHT22;35400;45.472;-122.822;2023-02-26T17:42:57;4.00;99.90
6375;DHT22;35400;45.472;-122.822;2023-02-26T17:45:25;4.00;99.90
6375;DHT22;35400;45.472;-122.822;2023-02-26T17:47:52;4.10;99.90
6375;DHT22;35400;45.472;-122.822;2023-02-26T17:50:31;4.20;99.90
6375;DHT22;35400;45.472;-122.822;2023-02-26T17:53:03;4.30;99.90
6375;DHT22;35400;45.472;-122.822;2023-02-26T17:55:30;4.40;99.90
6375;DHT22;35400;45.472;-122.822;2023-02-26T17:57:58;4.50;99.90
6375;DHT22;35400;45.472;-122.822;2023-02-26T18:00:24;4.60;99.90
6375;DHT22;35400;45.472;-122.822;2023-02-26T18:02:51;4.60;99.90
6375;DHT22;35400;45.472;-122.822;2023-02-26T18:05:18;4.60;99.90
6375;DHT22;35400;45.472;-122.822;2023-02-26T18:07:47;4.70;99.90
6375;DHT22;35400;45.472;-122.822;2023-02-26T18:10:20;4.70;99.90
6375;DHT22;35400;45.472;-122.822;2023-02-26T18:12:47;4.60;99.90
6375;DHT22;35400;45.472;-122.822;2023-02-26T18:15:15;4.60;99.90
6375;DHT22;35400;45.472;-122.822;2023-02-26T18:17:42;4.60;99.90
6375;DHT22;35400;45.472;-122.822;2023-02-26T18:20:16;4.60;99.90
6375;DHT22;35400;45.472;-122.822;2023-02-26T18:22:44;4.50;99.90
6375;DHT22;35400;45.472;-122.822;2023-02-26T18:25:13;4.50;99.90
6375;DHT22;35400;45.472;-122.822;2023-02-26T18:27:41;4.50;99.90
6375;DHT22;35400;45.472;-122.822;2023-02-26T18:30:21;4.50;99.90
6375;DHT22;35400;45.472;-122.822;2023-02-26T18:32:49;4.50;99.90
6375;DHT22;35400;45.472;-122.822;2023-02-26T18:35:16;4.50;99.90
6375;DHT22;35400;45.472;-122.822;2023-02-26T18:37:44;4.50;99.90
6375;DHT22;35400;45.472;-122.822;2023-02-26T18:40:16;4.50;99.90
6375;DHT22;35400;45.472;-122.822;2023-02-26T18:42:43;4.50;99.90
6375;DHT22;35400;45.472;-122.822;2023-02-26T18:45:10;4.60;99.90
6375;DHT22;35400;45.472;-122.822;2023-02-26T18:47:38;4.60;99.90
6375;DHT22;35400;45.472;-122.822;2023-02-26T18:50:06;4.60;99.90
6375;DHT22;35400;45.472;-122.822;2023-02-26T18:52:33;4.60;99.90
6375;DHT22;35400;45.472;-122.822;2023-02-26T18:55:00;4.50;99.90
6375;DHT22;35400;45.472;-122.822;2023-02-26T18:57:29;4.50;99.90
6375;DHT22;35400;45.472;-122.822;2023-02-26T18:59:55;4.50;99.90